Aviation Digital Data Service (ADDS)

Output produced by METARs form (1635 UTC 02 July 2015)
found at http://aviationweather.gov/adds/metars/
 
KBVI 021120Z 0212/0312 00000KT 3SM BR SCT050 
     TEMPO 0212/0213 1/4SM FG BKN001 
     FM021400 32005KT P6SM SCT050 
     FM030900 03003KT 4SM BR SCT250